XLL weather

Allentown Queen City Municipal Airport
Allentown, Pennsylvania, United States

Public forecast

Using degrees Fahrenheit for public forecast. Weather courtesy of forecast.io.

Current aviation weather report (METAR) for Allentown Queen City Municipal Airport

Retrieved 2019/10/16 11:35 UTC (0 seconds ago):

KXLL 161135Z AUTO 14003KT 10SM OVC006 12/11 A2992 RMK AO2

Closest aviation forecast (TAF) to Allentown Queen City Municipal Airport

Closest forecast is Lehigh Valley International Airport, 5.4 nm (9.9 km) NNE. Retrieved 2019/10/16 06:42 UTC (5 hours ago):

TAF KABE 160539Z 1606/1706 10004KT P6SM SCT250 FM161000 12006KT P6SM BKN025 FM161700 13008KT P6SM -RA OVC020 TEMPO 1618/1620 3SM RA BR OVC008 FM162000 11006KT 2SM +RA BR OVC008 FM162300 33010KT 4SM RA BR OVC015 FM170200 29016G30KT P6SM BKN035